createdAt,value
2019-05-06T00:01:33.996Z,96833.59
2019-05-06T00:04:04.662Z,96834.04
2019-05-06T00:06:34.563Z,96831.84
2019-05-06T00:09:04.283Z,96839.19
2019-05-06T00:11:34.538Z,96833.98
2019-05-06T00:14:03.923Z,96839.13
2019-05-06T00:16:34.700Z,96835.67
2019-05-06T00:19:04.783Z,96838.67
2019-05-06T00:21:35.268Z,96835.21
2019-05-06T00:24:03.910Z,96838.22
2019-05-06T00:26:34.121Z,96843.86
2019-05-06T00:29:04.570Z,96836.92
2019-05-06T00:31:34.593Z,96831.72
2019-05-06T00:34:04.341Z,96837.77
2019-05-06T00:36:34.499Z,96838.16
2019-05-06T00:39:04.648Z,96833.42
2019-05-06T00:41:36.437Z,96833.87
2019-05-06T00:44:05.470Z,96838.16
2019-05-06T00:46:34.477Z,96837.70
2019-05-06T00:49:03.811Z,96836.80
2019-05-06T00:51:33.907Z,96838.95
2019-05-06T00:54:04.289Z,96839.34
2019-05-06T00:56:34.087Z,96840.64
2019-05-06T00:59:03.677Z,96843.22
2019-05-06T01:01:34.276Z,96835.95
2019-05-06T01:04:04.568Z,96840.23
2019-05-06T01:06:34.415Z,96841.98
2019-05-06T01:09:04.545Z,96843.73
2019-05-06T01:11:34.575Z,96851.09
2019-05-06T01:14:07.336Z,96855.43
2019-05-06T01:16:35.658Z,96854.14
2019-05-06T01:19:04.748Z,96858.93
2019-05-06T01:21:34.398Z,96856.79
2019-05-06T01:24:04.020Z,96856.40
2019-05-06T01:26:33.737Z,96854.30
2019-05-06T01:29:03.928Z,96857.02
2019-05-06T01:31:42.028Z,96854.59
2019-05-06T01:34:04.341Z,96854.09
2019-05-06T01:36:34.267Z,96853.23
2019-05-06T01:39:07.364Z,96858.03
2019-05-06T01:41:53.689Z,96855.09
2019-05-06T01:44:22.006Z,96858.04
2019-05-06T01:46:50.331Z,96858.89
2019-05-06T01:49:18.630Z,96861.03
2019-05-06T01:51:47.007Z,96865.84
2019-05-06T01:54:15.378Z,96868.83
2019-05-06T01:56:44.404Z,96868.43
2019-05-06T01:59:13.969Z,96866.83
2019-05-06T02:01:56.423Z,96865.22
2019-05-06T02:04:13.826Z,96866.96
2019-05-06T02:06:43.829Z,96870.02
2019-05-06T02:09:16.223Z,96864.81
2019-05-06T02:11:47.740Z,96870.37
2019-05-06T02:14:14.757Z,96868.22
2019-05-06T02:16:43.714Z,96875.60
2019-05-06T02:19:12.041Z,96876.50
2019-05-06T02:21:43.848Z,96875.56
2019-05-06T02:24:19.608Z,96875.56
2019-05-06T02:26:48.053Z,96876.45
2019-05-06T02:29:24.645Z,96879.45
2019-05-06T02:32:21.082Z,96879.45
2019-05-06T02:34:45.785Z,96878.06
2019-05-06T02:37:15.859Z,96880.66
2019-05-06T02:39:44.221Z,96877.21
2019-05-06T02:42:13.210Z,96878.91
2019-05-06T02:44:44.120Z,96878.46
2019-05-06T02:47:28.568Z,96881.06
2019-05-06T02:50:04.525Z,96882.80
2019-05-06T02:52:33.002Z,96884.91
2019-05-06T02:55:01.564Z,96887.10
2019-05-06T02:57:33.251Z,96881.91
2019-05-06T02:59:59.885Z,96886.66
2019-05-06T03:02:42.108Z,96887.14
2019-05-06T03:04:58.254Z,96889.25
2019-05-06T03:07:26.582Z,96887.99
2019-05-06T03:09:54.996Z,96892.75
2019-05-06T03:12:25.003Z,96893.20
2019-05-06T03:14:53.591Z,96894.05
2019-05-06T03:17:23.495Z,96895.34
2019-05-06T03:19:53.720Z,96890.14
2019-05-06T03:22:35.644Z,96889.20
2019-05-06T03:25:13.475Z,96886.56
2019-05-06T03:27:46.560Z,96889.10
2019-05-06T03:30:16.335Z,96891.75
2019-05-06T03:33:21.509Z,96891.30
2019-05-06T03:35:27.219Z,96891.75
2019-05-06T03:37:44.049Z,96890.45
2019-05-06T03:40:13.850Z,96884.41
2019-05-06T03:42:42.749Z,96891.40
2019-05-06T03:45:13.347Z,96882.45
2019-05-06T03:47:43.681Z,96891.49
2019-05-06T03:50:13.263Z,96894.94
2019-05-06T03:52:43.004Z,96889.25
2019-05-06T03:55:13.816Z,96893.09
2019-05-06T03:57:42.863Z,96897.75
2019-05-06T04:00:16.043Z,96896.80
2019-05-06T04:02:44.554Z,96900.63
2019-05-06T04:05:13.490Z,96911.42
2019-05-06T04:07:45.923Z,96905.72
2019-05-06T04:10:13.859Z,96906.11
2019-05-06T04:12:44.573Z,96911.70
2019-05-06T04:15:14.371Z,96905.59
2019-05-06T04:17:47.229Z,96909.91
2019-05-06T04:20:23.397Z,96908.19
2019-05-06T04:22:54.631Z,96912.89
2019-05-06T04:25:43.391Z,96908.48
2019-05-06T04:28:13.822Z,96910.62
2019-05-06T04:30:43.101Z,96916.72
2019-05-06T04:33:16.513Z,96915.81
2019-05-06T04:35:43.059Z,96918.02
2019-05-06T04:38:14.002Z,96922.33
2019-05-06T04:40:43.890Z,96929.27
2019-05-06T04:43:13.314Z,96923.23
2019-05-06T04:45:43.281Z,96931.66
2019-05-06T04:48:14.324Z,96932.95
2019-05-06T04:50:44.342Z,96941.70
2019-05-06T04:53:13.710Z,96942.95
2019-05-06T04:55:43.587Z,96942.89
2019-05-06T04:58:13.594Z,96937.53
2019-05-06T05:00:44.547Z,96946.18
2019-05-06T05:03:13.967Z,96953.06
2019-05-06T05:05:44.881Z,96947.68
2019-05-06T05:08:13.354Z,96949.30
2019-05-06T05:10:52.808Z,96950.55
2019-05-06T05:13:32.937Z,96958.29
2019-05-06T05:16:12.848Z,96959.13
2019-05-06T05:18:42.791Z,96958.17
2019-05-06T05:21:11.933Z,96958.09
2019-05-06T05:23:42.717Z,96967.14
2019-05-06T05:26:12.082Z,96965.84
2019-05-06T05:28:42.803Z,96963.02
2019-05-06T05:31:12.277Z,96958.17
2019-05-06T05:33:42.363Z,96960.24
2019-05-06T05:36:12.367Z,96961.94
2019-05-06T05:38:42.820Z,96968.84
2019-05-06T05:41:12.159Z,96968.29
2019-05-06T05:43:54.160Z,96974.42
2019-05-06T05:46:22.452Z,96972.20
2019-05-06T05:48:55.466Z,96975.35
2019-05-06T05:51:23.739Z,96968.55
2019-05-06T05:53:52.498Z,96975.77
2019-05-06T05:56:24.088Z,96980.78
2019-05-06T05:58:53.558Z,96976.41
2019-05-06T06:01:23.332Z,96975.87
2019-05-06T06:03:52.771Z,96986.18
2019-05-06T06:06:22.174Z,96978.34
2019-05-06T06:08:52.370Z,96982.52
2019-05-06T06:11:28.719Z,96984.95
2019-05-06T06:13:58.675Z,96980.67
2019-05-06T06:16:34.638Z,96986.81
2019-05-06T06:19:12.591Z,96985.25
2019-05-06T06:21:45.303Z,96986.69
2019-05-06T06:24:24.065Z,96986.84
2019-05-06T06:26:52.427Z,96989.21
2019-05-06T06:29:22.822Z,96987.68
2019-05-06T06:31:52.831Z,96989.66
2019-05-06T06:34:32.966Z,96987.22
2019-05-06T06:37:19.190Z,96989.53
2019-05-06T06:39:49.405Z,96993.74
2019-05-06T06:42:22.214Z,96982.64
2019-05-06T06:44:52.063Z,96983.72
2019-05-06T06:47:22.469Z,96987.75
2019-05-06T06:49:53.310Z,96984.30
2019-05-06T06:52:23.037Z,96987.32
2019-05-06T06:54:52.638Z,96987.27
2019-05-06T06:57:22.796Z,96986.89
2019-05-06T06:59:53.257Z,96995.69
2019-05-06T07:02:23.174Z,96992.13
2019-05-06T07:05:05.896Z,96989.11
2019-05-06T07:07:43.402Z,96988.92
2019-05-06T07:10:09.420Z,96986.08
2019-05-06T07:12:37.706Z,96989.39
2019-05-06T07:15:07.368Z,96991.75
2019-05-06T07:17:35.691Z,96990.80
2019-05-06T07:20:15.477Z,96988.73
2019-05-06T07:22:43.838Z,96989.33
2019-05-06T07:25:12.824Z,96992.92
2019-05-06T07:27:42.017Z,96996.90
2019-05-06T07:30:12.350Z,96991.83
2019-05-06T07:32:42.430Z,96995.38
2019-05-06T07:35:12.871Z,97004.55
2019-05-06T07:37:42.311Z,97001.53
2019-05-06T07:40:12.439Z,96999.92
2019-05-06T07:42:43.187Z,97005.63
2019-05-06T07:45:13.323Z,97004.23
2019-05-06T07:47:43.351Z,97006.77
2019-05-06T07:50:13.043Z,97008.05
2019-05-06T07:52:43.219Z,97006.08
2019-05-06T07:55:12.053Z,97012.11
2019-05-06T07:57:42.392Z,97012.76
2019-05-06T08:00:12.516Z,97015.16
2019-05-06T08:02:42.541Z,97013.66
2019-05-06T08:05:12.621Z,97014.88
2019-05-06T08:07:42.268Z,97014.70
2019-05-06T08:10:10.821Z,97015.58
2019-05-06T08:12:39.224Z,97017.91
2019-05-06T08:15:07.760Z,97017.25
2019-05-06T08:17:37.697Z,97026.38
2019-05-06T08:20:07.282Z,97023.97
2019-05-06T08:22:46.074Z,97025.09
2019-05-06T08:25:14.451Z,97029.26
2019-05-06T08:27:42.857Z,97027.84
2019-05-06T08:30:12.915Z,97029.13
2019-05-06T08:32:42.473Z,97028.03
2019-05-06T08:35:12.884Z,97029.13
2019-05-06T08:37:42.682Z,97034.78
2019-05-06T08:40:12.013Z,97035.95
2019-05-06T08:42:42.606Z,97035.53
2019-05-06T08:45:12.703Z,97039.42
2019-05-06T08:47:42.598Z,97034.55
2019-05-06T08:50:15.318Z,97035.77
2019-05-06T08:53:00.360Z,97030.75
2019-05-06T08:55:36.236Z,97026.03
2019-05-06T08:58:04.685Z,97025.75
2019-05-06T09:00:34.719Z,97032.17
2019-05-06T09:03:04.293Z,97034.24
2019-05-06T09:05:33.221Z,97026.83
2019-05-06T09:08:03.658Z,97022.80
2019-05-06T09:10:32.512Z,97027.26
2019-05-06T09:13:01.984Z,97030.61
2019-05-06T09:15:32.549Z,97031.52
2019-05-06T09:18:02.810Z,97033.77
2019-05-06T09:20:32.465Z,97034.88
2019-05-06T09:23:04.240Z,97035.94
2019-05-06T09:25:32.299Z,97029.58
2019-05-06T09:28:08.048Z,97035.97
2019-05-06T09:30:38.257Z,97024.39
2019-05-06T09:33:06.627Z,97031.72
2019-05-06T09:35:35.017Z,97029.16
2019-05-06T09:38:03.291Z,97025.95
2019-05-06T09:40:31.934Z,97029.50
2019-05-06T09:43:04.460Z,97026.30
2019-05-06T09:45:30.456Z,97026.45
2019-05-06T09:48:06.196Z,97026.18
2019-05-06T09:50:37.853Z,97031.23
2019-05-06T09:53:07.855Z,97025.09
2019-05-06T09:55:54.136Z,97013.84
2019-05-06T09:58:22.916Z,97014.23
2019-05-06T10:00:55.650Z,97018.25
2019-05-06T10:03:23.996Z,97011.50
2019-05-06T10:05:53.090Z,97014.09
2019-05-06T10:08:22.748Z,97006.62
2019-05-06T10:10:56.812Z,97005.70
2019-05-06T10:13:21.302Z,97011.70
2019-05-06T10:15:52.081Z,97001.20
2019-05-06T10:18:22.505Z,97012.87
2019-05-06T10:20:50.622Z,97013.18
2019-05-06T10:23:18.902Z,97014.92
2019-05-06T10:25:47.221Z,97006.56
2019-05-06T10:28:23.123Z,97001.88
2019-05-06T10:30:50.571Z,96999.22
2019-05-06T10:33:26.676Z,96991.45
2019-05-06T10:35:57.071Z,96987.30
2019-05-06T10:38:32.138Z,96982.66
2019-05-06T10:41:07.452Z,96976.63
2019-05-06T10:43:45.708Z,96971.96
2019-05-06T10:46:14.393Z,96973.39
2019-05-06T10:48:42.693Z,96966.08
2019-05-06T10:51:22.887Z,96960.31
2019-05-06T10:53:51.311Z,96955.20
2019-05-06T10:56:27.300Z,96956.86
2019-05-06T10:58:57.398Z,96957.72
2019-05-06T11:01:30.231Z,96949.97
2019-05-06T11:03:57.807Z,96964.29
2019-05-06T11:06:26.116Z,96952.19
2019-05-06T11:08:54.503Z,96959.42
2019-05-06T11:11:32.666Z,96971.33
2019-05-06T11:13:52.912Z,96974.38
2019-05-06T11:16:23.762Z,96969.91
2019-05-06T11:18:53.486Z,96971.73
2019-05-06T11:21:22.626Z,96972.69
2019-05-06T11:23:52.696Z,96972.02
2019-05-06T11:26:23.536Z,96963.07
2019-05-06T11:28:55.659Z,96963.33
2019-05-06T11:31:33.196Z,96965.38
2019-05-06T11:34:15.045Z,96958.03
2019-05-06T11:36:47.907Z,96964.75
2019-05-06T11:39:16.354Z,96956.30
2019-05-06T11:42:01.450Z,96952.95
2019-05-06T11:44:14.683Z,96947.22
2019-05-06T11:46:43.082Z,96948.28
2019-05-06T11:49:12.478Z,96946.13
2019-05-06T11:51:43.527Z,96940.81
2019-05-06T11:54:17.516Z,96939.13
2019-05-06T11:56:48.865Z,96944.23
2019-05-06T11:59:12.934Z,96939.30
2019-05-06T12:01:43.532Z,96935.09
2019-05-06T12:04:13.877Z,96939.09
2019-05-06T12:06:42.462Z,96939.09
2019-05-06T12:09:16.047Z,96946.61
2019-05-06T12:11:43.187Z,96936.94
2019-05-06T12:14:12.422Z,96938.25
2019-05-06T12:16:40.916Z,96935.39
2019-05-06T12:19:09.240Z,96940.20
2019-05-06T12:21:37.546Z,96940.98
2019-05-06T12:24:05.944Z,96941.68
2019-05-06T12:26:34.273Z,96948.23
2019-05-06T12:29:02.635Z,96948.04
2019-05-06T12:31:32.789Z,96950.02
2019-05-06T12:34:02.623Z,96954.28
2019-05-06T12:36:32.594Z,96952.83
2019-05-06T12:39:19.668Z,96964.74
2019-05-06T12:41:57.992Z,96966.47
2019-05-06T12:44:26.361Z,96966.87
2019-05-06T12:47:08.279Z,96967.41
2019-05-06T12:49:36.671Z,96971.43
2019-05-06T12:52:05.097Z,96979.44
2019-05-06T12:54:33.774Z,96975.98
2019-05-06T12:57:03.351Z,96979.23
2019-05-06T12:59:31.871Z,96983.45
2019-05-06T13:02:02.704Z,96979.94
2019-05-06T13:04:46.261Z,96979.67
2019-05-06T13:07:02.929Z,96976.21
2019-05-06T13:09:32.970Z,96974.87
2019-05-06T13:12:03.276Z,96972.97
2019-05-06T13:14:33.032Z,96972.50
2019-05-06T13:17:02.877Z,96967.28
2019-05-06T13:19:32.203Z,96973.44
2019-05-06T13:22:03.590Z,96975.28
2019-05-06T13:24:32.640Z,96975.07
2019-05-06T13:27:02.523Z,96969.60
2019-05-06T13:29:35.423Z,96974.55
2019-05-06T13:32:02.986Z,96972.69
2019-05-06T13:34:33.375Z,96972.55
2019-05-06T13:37:01.425Z,96967.91
2019-05-06T13:39:29.770Z,96961.75
2019-05-06T13:41:58.182Z,96962.41
2019-05-06T13:44:26.449Z,96963.36
2019-05-06T13:46:55.269Z,96960.16
2019-05-06T13:49:27.989Z,96964.15
2019-05-06T13:52:03.964Z,96967.25
2019-05-06T13:54:30.827Z,96959.42
2019-05-06T13:56:59.120Z,96950.64
2019-05-06T13:59:30.080Z,96959.13
2019-05-06T14:02:17.078Z,96951.82
2019-05-06T14:04:45.468Z,96951.91
2019-05-06T14:07:13.856Z,96947.94
2019-05-06T14:09:43.680Z,96943.16
2019-05-06T14:12:12.355Z,96945.47
2019-05-06T14:14:43.183Z,96935.44
2019-05-06T14:17:12.781Z,96926.52
2019-05-06T14:19:42.867Z,96936.20
2019-05-06T14:22:12.517Z,96931.30
2019-05-06T14:24:43.187Z,96931.55
2019-05-06T14:27:12.252Z,96935.28
2019-05-06T14:29:42.328Z,96932.77
2019-05-06T14:32:12.260Z,96934.41
2019-05-06T14:34:43.118Z,96943.47
2019-05-06T14:37:10.750Z,96939.80
2019-05-06T14:39:53.333Z,96933.94
2019-05-06T14:42:13.586Z,96939.21
2019-05-06T14:44:43.106Z,96939.05
2019-05-06T14:47:25.222Z,96942.23
2019-05-06T14:49:56.525Z,96936.05
2019-05-06T14:52:24.823Z,96938.61
2019-05-06T14:54:54.844Z,96932.60
2019-05-06T14:57:24.101Z,96928.14
2019-05-06T14:59:55.569Z,96931.98
2019-05-06T15:02:26.228Z,96937.39
2019-05-06T15:04:54.360Z,96939.42
2019-05-06T15:07:22.662Z,96941.02
2019-05-06T15:10:02.399Z,96944.87
2019-05-06T15:12:23.353Z,96941.66
2019-05-06T15:14:52.564Z,96948.51
2019-05-06T15:17:22.922Z,96945.13
2019-05-06T15:19:52.527Z,96946.27
2019-05-06T15:22:22.510Z,96944.89
2019-05-06T15:24:53.686Z,96943.88
2019-05-06T15:27:22.735Z,96944.25
2019-05-06T15:29:54.207Z,96943.58
2019-05-06T15:32:27.306Z,96943.84
2019-05-06T15:35:13.803Z,96945.85
2019-05-06T15:37:46.608Z,96952.70
2019-05-06T15:40:15.569Z,96947.63
2019-05-06T15:42:43.871Z,96953.80
2019-05-06T15:45:12.709Z,96955.92
2019-05-06T15:47:42.542Z,96953.14
2019-05-06T15:50:12.767Z,96952.37
2019-05-06T15:52:43.556Z,96961.43
2019-05-06T15:55:12.190Z,96952.20
2019-05-06T15:57:43.283Z,96952.63
2019-05-06T16:00:13.023Z,96957.94
2019-05-06T16:02:41.984Z,96952.05
2019-05-06T16:05:13.752Z,96951.14
2019-05-06T16:07:43.147Z,96953.72
2019-05-06T16:10:13.166Z,96942.47
2019-05-06T16:12:41.848Z,96946.16
2019-05-06T16:15:12.941Z,96944.96
2019-05-06T16:17:42.668Z,96946.65
2019-05-06T16:20:12.984Z,96948.56
2019-05-06T16:22:44.409Z,96953.32
2019-05-06T16:25:13.997Z,96956.84
2019-05-06T16:27:44.121Z,96958.30
2019-05-06T16:30:14.578Z,96952.84
2019-05-06T16:32:43.499Z,96950.88
2019-05-06T16:35:14.310Z,96954.50
2019-05-06T16:37:42.415Z,96955.77
2019-05-06T16:40:12.375Z,96958.56
2019-05-06T16:42:45.349Z,96958.89
2019-05-06T16:45:12.716Z,96957.05
2019-05-06T16:47:44.369Z,96959.73
2019-05-06T16:50:15.914Z,96958.63
2019-05-06T16:52:45.498Z,96953.94
2019-05-06T16:55:18.232Z,96954.27
2019-05-06T16:57:48.230Z,96955.27
2019-05-06T17:00:18.499Z,96957.95
2019-05-06T17:03:00.561Z,96955.84
2019-05-06T17:05:33.770Z,96959.53
2019-05-06T17:08:02.965Z,96958.63
2019-05-06T17:10:34.338Z,96958.68
2019-05-06T17:13:03.060Z,96965.21
2019-05-06T17:15:32.520Z,96965.47
2019-05-06T17:18:02.864Z,96965.14
2019-05-06T17:20:32.613Z,96961.25
2019-05-06T17:23:02.927Z,96963.94
2019-05-06T17:25:32.889Z,96963.23
2019-05-06T17:28:02.775Z,96967.91
2019-05-06T17:30:51.013Z,96969.82
2019-05-06T17:33:42.802Z,96969.05
2019-05-06T17:36:13.051Z,96968.46
2019-05-06T17:38:45.689Z,96968.61
2019-05-06T17:41:14.076Z,96974.50
2019-05-06T17:43:44.107Z,96982.25
2019-05-06T17:46:14.087Z,96978.88
2019-05-06T17:48:44.074Z,96983.36
2019-05-06T17:51:14.547Z,96986.95
2019-05-06T17:53:47.524Z,96990.66
2019-05-06T17:56:15.816Z,96986.19
2019-05-06T17:58:44.190Z,96990.03
2019-05-06T18:01:14.077Z,96990.81
2019-05-06T18:03:42.355Z,96986.61
2019-05-06T18:06:13.837Z,96993.14
2019-05-06T18:08:43.006Z,96993.91
2019-05-06T18:11:13.040Z,96994.79
2019-05-06T18:13:41.490Z,96998.22
2019-05-06T18:16:09.875Z,97001.74
2019-05-06T18:18:38.232Z,97000.84
2019-05-06T18:21:06.547Z,97001.22
2019-05-06T18:23:34.925Z,97002.11
2019-05-06T18:26:03.324Z,97001.51
2019-05-06T18:28:32.691Z,97000.50
2019-05-06T18:31:03.137Z,97006.72
2019-05-06T18:33:32.650Z,97013.83
2019-05-06T18:36:02.570Z,97015.59
2019-05-06T18:38:33.523Z,97011.82
2019-05-06T18:41:02.016Z,97013.33
2019-05-06T18:43:32.661Z,97011.72
2019-05-06T18:46:02.653Z,97017.08
2019-05-06T18:48:32.894Z,97019.36
2019-05-06T18:51:02.818Z,97017.16
2019-05-06T18:53:32.994Z,97019.52
2019-05-06T18:56:02.859Z,97025.75
2019-05-06T18:58:31.200Z,97025.90
2019-05-06T19:00:59.632Z,97023.27
2019-05-06T19:03:31.869Z,97028.03
2019-05-06T19:05:59.636Z,97030.80
2019-05-06T19:08:32.939Z,97032.54
2019-05-06T19:11:02.445Z,97035.47
2019-05-06T19:13:33.293Z,97043.37
2019-05-06T19:16:02.103Z,97044.36
2019-05-06T19:18:30.500Z,97041.55
2019-05-06T19:20:58.878Z,97048.27
2019-05-06T19:23:27.203Z,97049.68
2019-05-06T19:25:55.586Z,97053.09
2019-05-06T19:28:24.039Z,97054.36
2019-05-06T19:30:54.160Z,97057.83
2019-05-06T19:33:22.457Z,97052.66
2019-05-06T19:35:52.291Z,97058.39
2019-05-06T19:38:23.900Z,97057.14
2019-05-06T19:40:52.113Z,97065.43
2019-05-06T19:43:21.971Z,97055.02
2019-05-06T19:45:50.481Z,97061.17
2019-05-06T19:48:18.857Z,97066.09
2019-05-06T19:50:47.238Z,97063.99
2019-05-06T19:53:15.568Z,97057.83
2019-05-06T19:55:46.828Z,97064.66
2019-05-06T19:58:13.938Z,97062.66
2019-05-06T20:00:42.313Z,97067.19
2019-05-06T20:03:12.281Z,97061.41
2019-05-06T20:05:42.383Z,97058.69
2019-05-06T20:08:24.221Z,97057.22
2019-05-06T20:11:02.951Z,97056.31
2019-05-06T20:13:32.287Z,97058.97
2019-05-06T20:16:02.253Z,97067.48
2019-05-06T20:18:32.735Z,97065.48
2019-05-06T20:21:00.731Z,97059.98
2019-05-06T20:23:29.112Z,97056.28
2019-05-06T20:25:57.504Z,97061.69
2019-05-06T20:28:25.948Z,97059.02
2019-05-06T20:30:54.381Z,97059.56
2019-05-06T20:33:22.781Z,97059.61
2019-05-06T20:35:52.589Z,97053.59
2019-05-06T20:38:23.227Z,97053.98
2019-05-06T20:40:51.147Z,97050.97
2019-05-06T20:43:21.676Z,97047.05
2019-05-06T20:45:52.191Z,97048.12
2019-05-06T20:48:20.715Z,97042.44
2019-05-06T20:50:49.043Z,97042.91
2019-05-06T20:53:17.351Z,97044.20
2019-05-06T20:55:45.841Z,97047.61
2019-05-06T20:58:14.244Z,97043.22
2019-05-06T21:00:43.120Z,97040.54
2019-05-06T21:03:12.344Z,97044.83
2019-05-06T21:05:43.216Z,97037.42
2019-05-06T21:08:12.878Z,97036.27
2019-05-06T21:10:42.507Z,97038.01
2019-05-06T21:13:13.128Z,97038.48
2019-05-06T21:15:43.196Z,97038.12
2019-05-06T21:18:12.117Z,97040.30
2019-05-06T21:20:40.736Z,97043.34
2019-05-06T21:23:09.018Z,97034.30
2019-05-06T21:25:37.439Z,97038.64
2019-05-06T21:28:05.733Z,97035.19
2019-05-06T21:30:34.057Z,97034.30
2019-05-06T21:33:02.422Z,97034.73
2019-05-06T21:35:32.972Z,97032.56
2019-05-06T21:38:02.517Z,97034.67
2019-05-06T21:40:32.279Z,97030.97
2019-05-06T21:43:02.076Z,97032.89
2019-05-06T21:45:32.887Z,97028.87
2019-05-06T21:48:02.748Z,97028.93
2019-05-06T21:50:32.874Z,97027.95
2019-05-06T21:53:02.689Z,97026.65
2019-05-06T21:55:32.335Z,97026.88
2019-05-06T21:58:02.128Z,97020.44
2019-05-06T22:00:38.308Z,97020.06
2019-05-06T22:03:06.677Z,97020.84
2019-05-06T22:05:34.990Z,97015.23
2019-05-06T22:08:03.360Z,97014.48
2019-05-06T22:10:32.517Z,97013.66
2019-05-06T22:13:00.858Z,97012.81
2019-05-06T22:15:29.153Z,97014.20
2019-05-06T22:17:57.568Z,97013.37
2019-05-06T22:20:25.882Z,97015.11
2019-05-06T22:22:54.217Z,97014.23
2019-05-06T22:25:22.511Z,97020.78
2019-05-06T22:27:51.959Z,97013.83
2019-05-06T22:30:23.714Z,97010.77
2019-05-06T22:32:52.667Z,97016.44
2019-05-06T22:35:23.053Z,97009.89
2019-05-06T22:37:52.932Z,97009.89
2019-05-06T22:40:23.549Z,97015.59
2019-05-06T22:42:52.751Z,97014.77
2019-05-06T22:45:22.234Z,97013.55
2019-05-06T22:47:50.833Z,97012.63
2019-05-06T22:50:22.456Z,97007.57
2019-05-06T22:52:49.300Z,97010.96
2019-05-06T22:55:17.621Z,97012.25
2019-05-06T22:57:45.914Z,97011.34
2019-05-06T23:00:17.490Z,97010.09
2019-05-06T23:02:53.139Z,97006.77
2019-05-06T23:05:23.120Z,97008.92
2019-05-06T23:07:53.239Z,97011.53
2019-05-06T23:10:24.530Z,97005.08
2019-05-06T23:12:52.375Z,96974.09
2019-05-06T23:15:20.728Z,96996.39
2019-05-06T23:17:49.034Z,96998.82
2019-05-06T23:20:17.330Z,97003.02
2019-05-06T23:22:45.632Z,97005.45
2019-05-06T23:25:14.054Z,97009.83
2019-05-06T23:27:44.223Z,97002.67
2019-05-06T23:30:12.842Z,97003.48
2019-05-06T23:32:42.224Z,97000.06
2019-05-06T23:35:12.880Z,97005.83
2019-05-06T23:38:17.501Z,97001.00
2019-05-06T23:41:22.554Z,96997.64
2019-05-06T23:44:27.238Z,96993.80
2019-05-06T23:47:32.168Z,96994.02
2019-05-06T23:50:36.902Z,96996.89
2019-05-06T23:53:41.385Z,96994.66
2019-05-06T23:56:43.970Z,96989.55
2019-05-06T23:59:17.266Z,96989.13
